Time;durP1;ratioP1;P1;durP2;ratioP2;P2;SDS_P1;SDS_P2;PMS_P1;PMS_P2;Temp;Humidity;BMP_temperature;BMP_pressure;BME280_temperature;BME280_humidity;BME280_pressure;Samples;Min_cycle;Max_cycle;Signal;HPM_P1;HPM_P2
2022/10/16 00:00:42;;;;;;;7.95;3.03;;;;;;;;;;5053964;28;20528;-89
2022/10/16 00:03:09;;;;;;;11.32;3.45;;;;;;;;;;5053732;28;20893;-88
2022/10/16 00:05:38;;;;;;;8.02;3.05;;;;;;;;;;5051317;28;20384;-89
2022/10/16 00:08:03;;;;;;;4.82;2.67;;;;;;;;;;5056897;28;20108;-89
2022/10/16 00:10:28;;;;;;;7.25;3.13;;;;;;;;;;5044972;28;20112;-89
2022/10/16 00:12:53;;;;;;;11.00;3.25;;;;;;;;;;5048567;28;20020;-89
2022/10/16 00:15:19;;;;;;;7.57;2.83;;;;;;;;;;5054436;28;20032;-89
2022/10/16 00:17:44;;;;;;;4.97;2.60;;;;;;;;;;5047282;28;20317;-89
2022/10/16 00:20:09;;;;;;;4.57;2.50;;;;;;;;;;5047589;28;20770;-89
2022/10/16 00:22:34;;;;;;;16.00;3.30;;;;;;;;;;5059000;28;20196;-89
2022/10/16 00:24:59;;;;;;;9.70;2.50;;;;;;;;;;5066983;28;20273;-89
2022/10/16 00:27:25;;;;;;;6.22;3.15;;;;;;;;;;5045873;28;20263;-89
2022/10/16 00:29:51;;;;;;;3.42;2.28;;;;;;;;;;5047968;28;20135;-88
2022/10/16 00:32:16;;;;;;;5.68;2.35;;;;;;;;;;5056155;28;20043;-89
2022/10/16 00:34:42;;;;;;;4.35;2.25;;;;;;;;;;5049805;28;20021;-90
2022/10/16 00:37:08;;;;;;;7.45;3.00;;;;;;;;;;5051209;28;20084;-89
2022/10/16 00:39:33;;;;;;;6.03;2.40;;;;;;;;;;5058991;28;20544;-88
2022/10/16 00:41:58;;;;;;;3.37;2.13;;;;;;;;;;5045527;28;20279;-89
2022/10/16 00:44:56;;;;;;;7.80;2.43;;;;;;;;;;5066868;28;20606;-88
2022/10/16 00:47:29;;;;;;;6.15;2.67;;;;;;;;;;5021720;28;20266;-89
2022/10/16 00:49:59;;;;;;;7.97;1.92;;;;;;;;;;5045145;28;20017;-88
2022/10/16 00:52:24;;;;;;;8.15;2.67;;;;;;;;;;5050446;28;20032;-89
2022/10/16 00:54:51;;;;;;;3.90;2.00;;;;;;;;;;5049558;28;20031;-88
2022/10/16 00:57:16;;;;;;;3.03;1.85;;;;;;;;;;5055721;28;20020;-88
2022/10/16 00:59:41;;;;;;;4.88;1.92;;;;;;;;;;5059689;28;20032;-89
2022/10/16 01:02:08;;;;;;;7.13;2.03;;;;;;;;;;5048710;28;20419;-88
2022/10/16 01:04:44;;;;;;;7.68;2.10;;;;;;;;;;5053791;28;20041;-89
2022/10/16 01:07:29;;;;;;;2.92;1.40;;;;;;;;;;5058298;28;20107;-89
2022/10/16 01:09:54;;;;;;;6.70;1.63;;;;;;;;;;5044899;28;20021;-89
2022/10/16 01:12:26;;;;;;;4.13;1.70;;;;;;;;;;5052993;28;20033;-89
2022/10/16 01:14:52;;;;;;;4.95;1.60;;;;;;;;;;5046842;28;20031;-89
2022/10/16 01:17:22;;;;;;;2.55;1.33;;;;;;;;;;5054062;28;20364;-89
2022/10/16 01:20:06;;;;;;;4.50;1.70;;;;;;;;;;5045122;28;21842;-89
2022/10/16 01:22:50;;;;;;;4.40;1.45;;;;;;;;;;5043717;28;20036;-89
2022/10/16 01:25:19;;;;;;;2.88;1.38;;;;;;;;;;5053977;28;20090;-89
2022/10/16 01:27:46;;;;;;;6.47;1.93;;;;;;;;;;5051889;28;20021;-89
2022/10/16 01:30:20;;;;;;;1.75;1.25;;;;;;;;;;5053368;28;20082;-89
2022/10/16 01:32:49;;;;;;;4.20;1.67;;;;;;;;;;5048505;28;20020;-89
2022/10/16 01:35:23;;;;;;;5.17;1.97;;;;;;;;;;5061624;28;20028;-89
2022/10/16 01:37:52;;;;;;;4.63;1.75;;;;;;;;;;5054334;28;20017;-89
2022/10/16 01:40:19;;;;;;;6.40;1.75;;;;;;;;;;5046656;28;20025;-88
2022/10/16 01:42:47;;;;;;;3.90;1.73;;;;;;;;;;5042599;28;20032;-90
2022/10/16 01:45:13;;;;;;;6.65;1.55;;;;;;;;;;5055482;28;20013;-88
2022/10/16 01:47:39;;;;;;;2.08;1.40;;;;;;;;;;5043332;28;20495;-88
2022/10/16 01:50:05;;;;;;;6.45;1.60;;;;;;;;;;5043148;28;20476;-89
2022/10/16 01:52:32;;;;;;;3.72;1.33;;;;;;;;;;5057159;28;20021;-89
2022/10/16 01:54:59;;;;;;;3.42;1.38;;;;;;;;;;5059291;28;20027;-89
2022/10/16 01:57:25;;;;;;;7.57;1.90;;;;;;;;;;5045116;28;20021;-89
2022/10/16 01:59:52;;;;;;;4.63;1.60;;;;;;;;;;5052870;28;20028;-89
2022/10/16 02:02:19;;;;;;;6.00;2.10;;;;;;;;;;5055808;28;20025;-90
2022/10/16 02:04:46;;;;;;;5.43;1.20;;;;;;;;;;5045151;28;20380;-89
2022/10/16 02:07:11;;;;;;;4.53;1.50;;;;;;;;;;5069578;28;20024;-89
2022/10/16 02:09:37;;;;;;;4.57;1.20;;;;;;;;;;5055132;28;20540;-88
2022/10/16 02:12:19;;;;;;;3.45;1.55;;;;;;;;;;5053682;28;20112;-88
2022/10/16 02:14:44;;;;;;;3.35;1.25;;;;;;;;;;5064656;28;20016;-88
2022/10/16 02:17:13;;;;;;;3.30;1.60;;;;;;;;;;5043013;28;20400;-88
2022/10/16 02:19:38;;;;;;;3.97;1.65;;;;;;;;;;5056423;28;20275;-89
2022/10/16 02:22:05;;;;;;;5.47;1.42;;;;;;;;;;5062763;28;20087;-88
2022/10/16 02:24:37;;;;;;;2.28;1.33;;;;;;;;;;5065728;28;20077;-89
2022/10/16 02:27:11;;;;;;;7.53;1.33;;;;;;;;;;5056816;28;20048;-88
2022/10/16 02:29:40;;;;;;;8.35;1.20;;;;;;;;;;5074992;28;20051;-88
2022/10/16 02:32:07;;;;;;;5.10;1.20;;;;;;;;;;5047563;28;20029;-89
2022/10/16 02:34:32;;;;;;;7.18;1.60;;;;;;;;;;5062701;28;20441;-89
2022/10/16 02:36:59;;;;;;;3.08;1.58;;;;;;;;;;5061368;28;20016;-88
2022/10/16 02:39:25;;;;;;;4.68;1.67;;;;;;;;;;5062818;28;20047;-88
2022/10/16 02:41:50;;;;;;;6.35;1.35;;;;;;;;;;5050838;28;20028;-88
2022/10/16 02:44:15;;;;;;;2.67;1.43;;;;;;;;;;5069445;28;20023;-87
2022/10/16 02:46:41;;;;;;;4.17;1.47;;;;;;;;;;5053667;28;20268;-88
2022/10/16 02:49:06;;;;;;;2.33;1.60;;;;;;;;;;5050170;28;20327;-88
2022/10/16 02:51:31;;;;;;;5.90;1.53;;;;;;;;;;5058103;28;20267;-88
2022/10/16 02:53:56;;;;;;;2.73;1.23;;;;;;;;;;5053115;28;20856;-89
2022/10/16 02:56:21;;;;;;;7.40;1.70;;;;;;;;;;5067425;28;20406;-89
2022/10/16 02:58:47;;;;;;;9.18;1.60;;;;;;;;;;5070740;28;20269;-88
2022/10/16 03:01:14;;;;;;;3.70;1.58;;;;;;;;;;5049358;28;20029;-88
2022/10/16 03:03:39;;;;;;;4.45;1.98;;;;;;;;;;5051491;28;20067;-89
2022/10/16 03:06:04;;;;;;;4.17;1.83;;;;;;;;;;5051333;28;20021;-88
2022/10/16 03:08:29;;;;;;;5.97;1.98;;;;;;;;;;5054802;28;20663;-88
2022/10/16 03:10:54;;;;;;;3.95;1.50;;;;;;;;;;5051448;28;20357;-88
2022/10/16 03:13:20;;;;;;;6.37;1.83;;;;;;;;;;5049290;28;20025;-88
2022/10/16 03:15:45;;;;;;;5.53;1.50;;;;;;;;;;5051701;28;20278;-88
2022/10/16 03:18:11;;;;;;;3.92;1.35;;;;;;;;;;5057059;28;20032;-88
2022/10/16 03:20:36;;;;;;;4.22;1.60;;;;;;;;;;5050224;28;20025;-88
2022/10/16 03:23:02;;;;;;;8.70;1.80;;;;;;;;;;5050398;28;20133;-88
2022/10/16 03:25:27;;;;;;;4.63;1.65;;;;;;;;;;5051984;28;20031;-88
2022/10/16 03:27:52;;;;;;;3.90;1.48;;;;;;;;;;5051063;28;20013;-87
2022/10/16 03:30:18;;;;;;;5.87;1.70;;;;;;;;;;5051413;28;20020;-88
2022/10/16 03:32:44;;;;;;;6.22;1.90;;;;;;;;;;5055938;28;20321;-88
2022/10/16 03:35:10;;;;;;;7.30;1.60;;;;;;;;;;5062454;28;20040;-88
2022/10/16 03:37:35;;;;;;;5.63;1.60;;;;;;;;;;5073706;28;20028;-88
2022/10/16 03:40:00;;;;;;;8.13;1.70;;;;;;;;;;5046032;28;20029;-89
2022/10/16 03:42:25;;;;;;;5.38;1.65;;;;;;;;;;5062087;28;20067;-88
2022/10/16 03:44:51;;;;;;;4.20;1.50;;;;;;;;;;5049083;28;20013;-88
2022/10/16 03:47:20;;;;;;;9.00;2.00;;;;;;;;;;5048813;28;20021;-88
2022/10/16 03:49:45;;;;;;;2.33;1.63;;;;;;;;;;5048228;28;20269;-89
2022/10/16 03:52:10;;;;;;;3.63;1.92;;;;;;;;;;5047948;28;20017;-89
2022/10/16 03:54:36;;;;;;;4.73;1.87;;;;;;;;;;5059857;28;20032;-89
2022/10/16 03:57:01;;;;;;;12.18;4.57;;;;;;;;;;5052394;28;20604;-89
2022/10/16 03:59:26;;;;;;;14.67;3.47;;;;;;;;;;5044539;28;20025;-88
2022/10/16 04:01:51;;;;;;;15.27;6.85;;;;;;;;;;5045472;28;20287;-88
2022/10/16 04:04:16;;;;;;;20.83;8.93;;;;;;;;;;5062184;28;20475;-88
2022/10/16 04:06:42;;;;;;;9.60;5.43;;;;;;;;;;5052140;28;20287;-88
2022/10/16 04:09:07;;;;;;;6.63;2.73;;;;;;;;;;5049473;28;20314;-88
2022/10/16 04:11:32;;;;;;;4.20;2.05;;;;;;;;;;5064893;28;20805;-88
2022/10/16 04:13:57;;;;;;;4.60;3.17;;;;;;;;;;5041518;28;20043;-89
2022/10/16 04:16:22;;;;;;;4.80;2.50;;;;;;;;;;5057267;28;20290;-88
2022/10/16 04:18:48;;;;;;;12.03;2.10;;;;;;;;;;5056981;28;20020;-87
2022/10/16 04:21:13;;;;;;;8.68;2.22;;;;;;;;;;5051566;28;20294;-88
2022/10/16 04:23:38;;;;;;;2.10;1.15;;;;;;;;;;5048687;28;20487;-88
2022/10/16 04:26:03;;;;;;;2.55;1.38;;;;;;;;;;5050429;28;20468;-89
2022/10/16 04:28:28;;;;;;;5.43;1.57;;;;;;;;;;5060978;28;20017;-88
2022/10/16 04:30:53;;;;;;;3.33;1.40;;;;;;;;;;5047647;28;20255;-88
2022/10/16 04:33:19;;;;;;;3.07;2.20;;;;;;;;;;5063530;28;20311;-89
2022/10/16 04:35:44;;;;;;;6.85;2.15;;;;;;;;;;5051074;28;20278;-89
2022/10/16 04:38:09;;;;;;;8.95;2.35;;;;;;;;;;5043273;28;20031;-89
2022/10/16 04:40:36;;;;;;;5.97;1.70;;;;;;;;;;5056979;28;20012;-89
2022/10/16 04:43:02;;;;;;;7.75;1.70;;;;;;;;;;5038842;28;20039;-88
2022/10/16 04:45:27;;;;;;;4.22;1.85;;;;;;;;;;5044359;28;20097;-89
2022/10/16 04:47:52;;;;;;;6.87;1.70;;;;;;;;;;5045150;28;20096;-89
2022/10/16 04:50:18;;;;;;;4.57;1.50;;;;;;;;;;5060029;22;20831;-66
2022/10/16 04:52:43;;;;;;;3.50;1.43;;;;;;;;;;5049951;28;20282;-65
2022/10/16 04:55:08;;;;;;;3.25;1.27;;;;;;;;;;5044692;28;20390;-69
2022/10/16 04:57:33;;;;;;;2.90;1.80;;;;;;;;;;5034819;28;20033;-66
2022/10/16 04:59:59;;;;;;;4.18;1.48;;;;;;;;;;5034282;28;20382;-65
2022/10/16 05:02:25;;;;;;;3.60;1.80;;;;;;;;;;5031760;28;20017;-65
2022/10/16 05:04:50;;;;;;;3.70;1.30;;;;;;;;;;5031325;28;20029;-65
2022/10/16 05:07:15;;;;;;;4.85;1.88;;;;;;;;;;5027334;28;20044;-66
2022/10/16 05:09:40;;;;;;;12.90;2.40;;;;;;;;;;5032774;28;20075;-65
2022/10/16 05:12:05;;;;;;;3.20;1.87;;;;;;;;;;5042481;28;20318;-66
2022/10/16 05:14:31;;;;;;;5.17;1.40;;;;;;;;;;5038088;28;20276;-66
2022/10/16 05:16:56;;;;;;;6.90;1.88;;;;;;;;;;5035653;28;20057;-65
2022/10/16 05:19:21;;;;;;;4.40;1.47;;;;;;;;;;5040531;28;20057;-65
2022/10/16 05:21:46;;;;;;;2.40;1.77;;;;;;;;;;5051564;28;20620;-66
2022/10/16 05:24:11;;;;;;;2.80;1.43;;;;;;;;;;5030295;28;20311;-66
2022/10/16 05:26:36;;;;;;;2.88;1.50;;;;;;;;;;5043072;28;20778;-65
2022/10/16 05:29:02;;;;;;;9.10;1.80;;;;;;;;;;5040524;28;20013;-65
2022/10/16 05:31:28;;;;;;;1.67;1.30;;;;;;;;;;5049018;28;20021;-65
2022/10/16 05:33:57;;;;;;;3.83;1.60;;;;;;;;;;5034236;28;20021;-65
2022/10/16 05:36:22;;;;;;;2.88;1.38;;;;;;;;;;5041177;28;20339;-65
2022/10/16 05:38:50;;;;;;;4.73;1.80;;;;;;;;;;5078514;22;20520;-66
2022/10/16 05:41:16;;;;;;;5.38;1.63;;;;;;;;;;5048909;28;20032;-66
2022/10/16 05:43:41;;;;;;;2.65;1.48;;;;;;;;;;5047145;28;20025;-66
2022/10/16 05:46:07;;;;;;;2.73;1.50;;;;;;;;;;5057721;28;20017;-67
2022/10/16 05:48:32;;;;;;;2.60;1.30;;;;;;;;;;5051346;28;20755;-67
2022/10/16 05:51:02;;;;;;;3.22;1.15;;;;;;;;;;5050313;28;20267;-65
2022/10/16 05:53:28;;;;;;;9.18;1.40;;;;;;;;;;5053667;28;20071;-65
2022/10/16 05:55:56;;;;;;;1.85;1.00;;;;;;;;;;5048911;28;20493;-66
2022/10/16 05:58:22;;;;;;;2.38;1.30;;;;;;;;;;5066526;28;20016;-66
2022/10/16 06:00:58;;;;;;;5.88;1.30;;;;;;;;;;5050042;28;20013;-65
2022/10/16 06:03:23;;;;;;;5.07;1.40;;;;;;;;;;5057330;28;20081;-69
2022/10/16 06:05:49;;;;;;;4.00;1.55;;;;;;;;;;5058820;28;20020;-65
2022/10/16 06:08:14;;;;;;;8.63;1.50;;;;;;;;;;5046738;28;20528;-65
2022/10/16 06:10:39;;;;;;;6.00;1.60;;;;;;;;;;5048621;28;20024;-68
2022/10/16 06:13:04;;;;;;;3.73;1.30;;;;;;;;;;5039995;28;20280;-65
2022/10/16 06:15:29;;;;;;;6.60;1.80;;;;;;;;;;5047571;28;20790;-68
2022/10/16 06:17:55;;;;;;;4.03;1.30;;;;;;;;;;5045397;28;20333;-65
2022/10/16 06:20:20;;;;;;;2.50;1.53;;;;;;;;;;5047270;28;20276;-67
2022/10/16 06:22:45;;;;;;;4.70;1.48;;;;;;;;;;5046992;28;20279;-66
2022/10/16 06:25:10;;;;;;;4.60;1.50;;;;;;;;;;5044644;28;20389;-69
2022/10/16 06:27:35;;;;;;;2.53;1.63;;;;;;;;;;5045103;28;20294;-66
2022/10/16 06:30:00;;;;;;;5.75;1.60;;;;;;;;;;5044796;28;20314;-66
2022/10/16 06:32:26;;;;;;;7.50;2.07;;;;;;;;;;5046758;28;20055;-65
2022/10/16 06:34:52;;;;;;;3.22;1.60;;;;;;;;;;5041389;28;20279;-69
2022/10/16 06:37:17;;;;;;;2.53;1.93;;;;;;;;;;5040284;28;20063;-66
2022/10/16 06:39:42;;;;;;;7.27;1.93;;;;;;;;;;5042947;28;21573;-65
2022/10/16 06:42:07;;;;;;;2.23;1.50;;;;;;;;;;5044969;28;20279;-65
2022/10/16 06:44:32;;;;;;;4.33;2.57;;;;;;;;;;5054848;28;20754;-70
2022/10/16 06:46:57;;;;;;;2.10;1.43;;;;;;;;;;5052539;28;20270;-65
2022/10/16 06:49:23;;;;;;;5.80;2.23;;;;;;;;;;5039107;28;20271;-71
2022/10/16 06:51:48;;;;;;;3.00;1.40;;;;;;;;;;5043544;28;20100;-66
2022/10/16 06:54:14;;;;;;;1.45;1.13;;;;;;;;;;5034814;28;20138;-66
2022/10/16 06:56:39;;;;;;;3.22;1.45;;;;;;;;;;5042716;28;20033;-67
2022/10/16 06:59:05;;;;;;;8.07;1.65;;;;;;;;;;5039195;28;20017;-66
2022/10/16 07:01:30;;;;;;;8.35;1.80;;;;;;;;;;5044335;28;20563;-71
2022/10/16 07:03:55;;;;;;;2.13;1.38;;;;;;;;;;5037262;28;20363;-71
2022/10/16 07:06:22;;;;;;;1.60;1.30;;;;;;;;;;5031946;28;20037;-69
2022/10/16 07:08:47;;;;;;;4.65;1.10;;;;;;;;;;5042371;28;20276;-66
2022/10/16 07:11:13;;;;;;;3.25;1.42;;;;;;;;;;5042158;28;20568;-66
2022/10/16 07:13:39;;;;;;;5.53;1.58;;;;;;;;;;5046534;28;20078;-68
2022/10/16 07:16:09;;;;;;;3.88;1.50;;;;;;;;;;5045141;28;20029;-66
2022/10/16 07:18:34;;;;;;;2.13;1.37;;;;;;;;;;5038094;28;20024;-66
2022/10/16 07:21:03;;;;;;;4.65;1.38;;;;;;;;;;5047687;28;20067;-66
2022/10/16 07:23:28;;;;;;;2.03;1.38;;;;;;;;;;5044819;28;20025;-66
2022/10/16 07:25:54;;;;;;;3.80;1.30;;;;;;;;;;5050215;28;20021;-68
2022/10/16 07:28:19;;;;;;;3.75;1.00;;;;;;;;;;5047584;28;20268;-73
2022/10/16 07:30:44;;;;;;;6.07;1.47;;;;;;;;;;5048186;28;20089;-67
2022/10/16 07:33:09;;;;;;;2.03;1.10;;;;;;;;;;5051038;28;20283;-68
2022/10/16 07:35:35;;;;;;;3.33;1.60;;;;;;;;;;5048955;28;20393;-66
2022/10/16 07:38:00;;;;;;;3.85;1.38;;;;;;;;;;5056313;28;20271;-67
2022/10/16 07:40:26;;;;;;;2.90;1.43;;;;;;;;;;5047969;28;20025;-66
2022/10/16 07:45:54;;;;;;;2.75;1.48;;;;;;;;;;5022548;28;20053;-68
2022/10/16 07:48:20;;;;;;;5.97;1.65;;;;;;;;;;5001710;28;20744;-69
2022/10/16 07:50:45;;;;;;;6.32;1.50;;;;;;;;;;4991781;28;20516;-66
2022/10/16 07:53:11;;;;;;;2.25;1.20;;;;;;;;;;5003674;28;20037;-68
2022/10/16 07:55:36;;;;;;;5.97;1.27;;;;;;;;;;4996680;28;20023;-67
2022/10/16 08:00:37;;;;;;;1.52;0.82;;;;;;;;;;4974961;22;20069;-63
2022/10/16 08:03:02;;;;;;;6.85;1.15;;;;;;;;;;4979494;28;20038;-64
2022/10/16 08:05:28;;;;;;;4.93;1.17;;;;;;;;;;4964258;28;20060;-64
2022/10/16 08:07:53;;;;;;;3.90;1.73;;;;;;;;;;4968856;28;20026;-64
2022/10/16 08:10:20;;;;;;;7.03;1.13;;;;;;;;;;4969687;28;20438;-64
2022/10/16 08:12:45;;;;;;;2.45;0.80;;;;;;;;;;4968815;28;20034;-64
2022/10/16 08:15:10;;;;;;;4.13;0.80;;;;;;;;;;5017026;23;20046;-67
2022/10/16 08:17:36;;;;;;;6.23;1.67;;;;;;;;;;5010794;28;20288;-67
2022/10/16 08:20:01;;;;;;;4.10;0.77;;;;;;;;;;5012654;28;20253;-67
2022/10/16 08:22:27;;;;;;;1.90;0.95;;;;;;;;;;5012357;28;20330;-68
2022/10/16 08:24:52;;;;;;;4.40;1.60;;;;;;;;;;4998674;28;20418;-68
2022/10/16 08:27:17;;;;;;;1.47;0.60;;;;;;;;;;5010915;28;20029;-67
2022/10/16 08:29:42;;;;;;;4.03;0.68;;;;;;;;;;5000977;28;20386;-67
2022/10/16 08:32:07;;;;;;;2.40;0.70;;;;;;;;;;5005511;28;20523;-67
2022/10/16 08:34:32;;;;;;;2.37;0.60;;;;;;;;;;5003802;28;20434;-67
2022/10/16 08:36:58;;;;;;;1.47;0.70;;;;;;;;;;5000347;28;20028;-67
2022/10/16 08:39:23;;;;;;;1.00;0.70;;;;;;;;;;5008725;28;20426;-67
2022/10/16 08:42:07;;;;;;;2.33;0.90;;;;;;;;;;5006934;28;20076;-67
2022/10/16 08:44:44;;;;;;;5.88;1.10;;;;;;;;;;5006267;28;20417;-67
2022/10/16 08:47:21;;;;;;;0.63;0.50;;;;;;;;;;5006405;28;20120;-67
2022/10/16 08:49:57;;;;;;;1.13;0.60;;;;;;;;;;5012609;28;20018;-68
2022/10/16 08:52:23;;;;;;;3.05;1.00;;;;;;;;;;4999972;28;20499;-67
2022/10/16 08:54:51;;;;;;;2.42;0.80;;;;;;;;;;5007325;28;20022;-67
2022/10/16 08:57:18;;;;;;;1.80;0.80;;;;;;;;;;5011623;28;20085;-69
2022/10/16 08:59:43;;;;;;;1.58;0.70;;;;;;;;;;5009153;28;20485;-67
2022/10/16 09:02:20;;;;;;;1.33;0.80;;;;;;;;;;5009474;28;20057;-67
2022/10/16 09:04:53;;;;;;;3.38;0.70;;;;;;;;;;5004643;28;20360;-68
2022/10/16 09:07:38;;;;;;;3.83;0.95;;;;;;;;;;4999246;28;20014;-67
2022/10/16 09:10:10;;;;;;;4.35;1.50;;;;;;;;;;5010590;28;20017;-67
2022/10/16 09:13:10;;;;;;;3.55;0.82;;;;;;;;;;5010113;28;20064;-67
2022/10/16 09:15:40;;;;;;;1.30;0.57;;;;;;;;;;4988587;28;20061;-67
2022/10/16 09:18:09;;;;;;;2.80;0.80;;;;;;;;;;5003598;28;20125;-67
2022/10/16 09:20:53;;;;;;;3.72;0.90;;;;;;;;;;5013271;28;20030;-68
2022/10/16 09:23:34;;;;;;;1.58;0.60;;;;;;;;;;5011231;28;20025;-67
2022/10/16 09:25:59;;;;;;;1.17;0.52;;;;;;;;;;5004577;28;20108;-69
2022/10/16 09:28:24;;;;;;;0.60;0.30;;;;;;;;;;5008332;28;20483;-69
2022/10/16 09:30:50;;;;;;;0.85;0.40;;;;;;;;;;5011159;28;20017;-69
2022/10/16 09:33:16;;;;;;;3.83;0.60;;;;;;;;;;5011092;28;20053;-69
2022/10/16 09:35:49;;;;;;;1.15;0.20;;;;;;;;;;5008089;28;20018;-68
2022/10/16 09:38:22;;;;;;;1.13;0.40;;;;;;;;;;5010600;28;20431;-68
2022/10/16 09:40:47;;;;;;;4.50;0.50;;;;;;;;;;5009991;28;20023;-68
2022/10/16 09:43:21;;;;;;;1.58;0.40;;;;;;;;;;5010106;28;20375;-68
2022/10/16 09:46:09;;;;;;;2.75;0.65;;;;;;;;;;5009734;28;20045;-69
2022/10/16 09:48:34;;;;;;;2.13;0.40;;;;;;;;;;5009510;28;20032;-69
2022/10/16 09:51:01;;;;;;;6.70;0.55;;;;;;;;;;5010859;28;20021;-69
2022/10/16 09:53:37;;;;;;;2.85;0.50;;;;;;;;;;5009063;28;20071;-70
2022/10/16 09:56:03;;;;;;;3.03;0.52;;;;;;;;;;4999109;28;20109;-68
2022/10/16 09:58:28;;;;;;;2.55;0.68;;;;;;;;;;5005038;28;20544;-69
2022/10/16 10:00:54;;;;;;;2.10;0.63;;;;;;;;;;5008844;28;20034;-68
2022/10/16 10:03:30;;;;;;;4.80;1.05;;;;;;;;;;5006212;28;20029;-68
2022/10/16 10:05:55;;;;;;;5.10;0.50;;;;;;;;;;5000537;28;20049;-68
2022/10/16 10:08:20;;;;;;;1.63;0.60;;;;;;;;;;5001477;28;20021;-68
2022/10/16 10:10:48;;;;;;;3.30;0.50;;;;;;;;;;5006238;28;20100;-69
2022/10/16 10:13:20;;;;;;;1.27;0.40;;;;;;;;;;5008378;28;20033;-69
2022/10/16 10:15:45;;;;;;;2.58;0.50;;;;;;;;;;5007137;28;20048;-70
2022/10/16 10:18:18;;;;;;;2.63;0.60;;;;;;;;;;5009076;28;20561;-68
2022/10/16 10:20:44;;;;;;;1.02;0.30;;;;;;;;;;5008755;28;20022;-67
2022/10/16 10:23:23;;;;;;;2.67;0.50;;;;;;;;;;5008634;28;20032;-67
2022/10/16 10:25:51;;;;;;;1.63;0.43;;;;;;;;;;5009541;28;20520;-67
2022/10/16 10:28:36;;;;;;;8.18;0.73;;;;;;;;;;5009565;28;20026;-68
2022/10/16 10:31:20;;;;;;;1.38;0.47;;;;;;;;;;5015399;28;20498;-69
2022/10/16 10:33:48;;;;;;;11.00;1.00;;;;;;;;;;5004781;28;20027;-68
2022/10/16 10:36:32;;;;;;;14.30;0.70;;;;;;;;;;5007307;28;20026;-70
2022/10/16 10:39:20;;;;;;;1.58;0.57;;;;;;;;;;4998148;28;20121;-67
2022/10/16 10:42:04;;;;;;;2.33;0.47;;;;;;;;;;4999380;28;20037;-69
2022/10/16 10:45:02;;;;;;;4.47;0.32;;;;;;;;;;5009248;28;20560;-70
2022/10/16 10:47:36;;;;;;;2.92;0.52;;;;;;;;;;4998004;28;20069;-69
2022/10/16 10:50:10;;;;;;;1.95;0.50;;;;;;;;;;5013692;28;20474;-70
2022/10/16 10:52:53;;;;;;;2.47;0.57;;;;;;;;;;5011000;28;20026;-69
2022/10/16 10:55:25;;;;;;;1.38;0.45;;;;;;;;;;5012170;28;20026;-70
2022/10/16 10:58:05;;;;;;;5.30;0.57;;;;;;;;;;5012930;28;20025;-70
2022/10/16 11:00:43;;;;;;;6.40;0.40;;;;;;;;;;5011230;28;20402;-66
2022/10/16 11:03:26;;;;;;;0.35;0.25;;;;;;;;;;5012310;28;20022;-69
2022/10/16 11:06:12;;;;;;;5.15;0.40;;;;;;;;;;5012219;28;20073;-70
2022/10/16 11:08:47;;;;;;;2.25;0.30;;;;;;;;;;5012052;28;20026;-69
2022/10/16 11:11:18;;;;;;;2.63;0.52;;;;;;;;;;5011290;28;20176;-70
2022/10/16 11:13:43;;;;;;;0.75;0.43;;;;;;;;;;5011923;28;20417;-69
2022/10/16 11:16:38;;;;;;;2.40;0.30;;;;;;;;;;5012568;28;20029;-69
2022/10/16 11:19:18;;;;;;;1.58;0.40;;;;;;;;;;5007367;28;20125;-69
2022/10/16 11:21:48;;;;;;;1.52;0.43;;;;;;;;;;5010712;28;20026;-68
2022/10/16 11:24:13;;;;;;;2.35;0.35;;;;;;;;;;5012067;28;20374;-67
2022/10/16 11:26:40;;;;;;;5.93;0.50;;;;;;;;;;5011244;28;20085;-69
2022/10/16 11:29:11;;;;;;;3.08;0.40;;;;;;;;;;5012343;28;20022;-69
2022/10/16 11:32:06;;;;;;;3.38;0.82;;;;;;;;;;5011773;28;20040;-69
2022/10/16 11:34:37;;;;;;;0.82;0.32;;;;;;;;;;4992975;28;20034;-69
2022/10/16 11:37:02;;;;;;;2.75;0.70;;;;;;;;;;5012103;28;20438;-68
2022/10/16 11:39:29;;;;;;;2.05;0.40;;;;;;;;;;5010463;28;20033;-68
2022/10/16 11:42:13;;;;;;;3.63;0.57;;;;;;;;;;5011889;28;20029;-69
2022/10/16 11:44:50;;;;;;;1.33;0.43;;;;;;;;;;5011170;28;20084;-69
2022/10/16 11:47:30;;;;;;;2.92;0.30;;;;;;;;;;5011632;28;20036;-69
2022/10/16 11:50:06;;;;;;;2.35;0.45;;;;;;;;;;5011664;28;20017;-69
2022/10/16 11:53:00;;;;;;;2.90;0.88;;;;;;;;;;5009738;28;20044;-69
2022/10/16 11:55:34;;;;;;;1.27;0.38;;;;;;;;;;5009566;28;20053;-69
2022/10/16 11:58:09;;;;;;;1.77;0.45;;;;;;;;;;5006815;28;20096;-69
2022/10/16 12:00:41;;;;;;;2.38;0.50;;;;;;;;;;5009346;28;20029;-70
2022/10/16 12:03:14;;;;;;;2.22;0.45;;;;;;;;;;5010883;28;20026;-69
2022/10/16 12:05:55;;;;;;;3.28;0.55;;;;;;;;;;5010168;28;20059;-69
2022/10/16 12:08:20;;;;;;;;;;;;;;;;;;5011464;28;20028;-70
2022/10/16 12:10:46;;;;;;;8.60;0.70;;;;;;;;;;5011381;28;19905;-68
2022/10/16 12:13:30;;;;;;;1.23;0.38;;;;;;;;;;5011172;28;20048;-68
2022/10/16 12:16:05;;;;;;;1.42;0.50;;;;;;;;;;5004471;28;20033;-68
2022/10/16 12:18:31;;;;;;;0.82;0.35;;;;;;;;;;5011133;28;20418;-69
2022/10/16 12:20:58;;;;;;;6.73;0.60;;;;;;;;;;5011270;28;20478;-68
2022/10/16 12:23:25;;;;;;;2.38;0.90;;;;;;;;;;5007836;28;20288;-66
2022/10/16 12:25:54;;;;;;;2.72;0.43;;;;;;;;;;5010716;28;20025;-68
2022/10/16 12:28:20;;;;;;;8.55;0.77;;;;;;;;;;5010703;28;20017;-70
2022/10/16 12:30:53;;;;;;;2.03;0.63;;;;;;;;;;5010088;28;20150;-69
2022/10/16 12:33:29;;;;;;;0.60;0.30;;;;;;;;;;5010833;28;20018;-69
2022/10/16 12:35:55;;;;;;;1.98;0.55;;;;;;;;;;5003917;28;20014;-70
2022/10/16 12:38:24;;;;;;;1.98;0.50;;;;;;;;;;5010583;28;20482;-70
2022/10/16 12:41:00;;;;;;;1.40;0.45;;;;;;;;;;5010776;28;20143;-70
2022/10/16 12:43:31;;;;;;;2.17;0.50;;;;;;;;;;5009862;28;20045;-69
2022/10/16 12:46:04;;;;;;;4.18;0.40;;;;;;;;;;5010396;28;20075;-68
2022/10/16 12:48:30;;;;;;;3.47;0.68;;;;;;;;;;5010921;28;20112;-70
2022/10/16 12:50:55;;;;;;;1.27;0.40;;;;;;;;;;5004055;28;20021;-69
2022/10/16 12:53:23;;;;;;;7.53;1.00;;;;;;;;;;5008969;28;20026;-69
2022/10/16 12:55:55;;;;;;;1.77;0.95;;;;;;;;;;5010290;28;20249;-68
2022/10/16 12:58:26;;;;;;;1.75;0.60;;;;;;;;;;5009582;28;20025;-69
2022/10/16 13:00:56;;;;;;;1.52;0.38;;;;;;;;;;5010232;28;20043;-69
2022/10/16 13:03:40;;;;;;;1.50;0.38;;;;;;;;;;5009281;28;20014;-68
2022/10/16 13:06:24;;;;;;;1.98;0.47;;;;;;;;;;5010363;28;20022;-68
2022/10/16 13:09:08;;;;;;;0.98;0.30;;;;;;;;;;5009968;28;20682;-68
2022/10/16 13:11:39;;;;;;;3.38;0.43;;;;;;;;;;5008304;28;20052;-67
2022/10/16 13:14:11;;;;;;;2.15;0.50;;;;;;;;;;5009598;28;20462;-69
2022/10/16 13:16:55;;;;;;;4.95;0.40;;;;;;;;;;5008414;28;20026;-68
2022/10/16 13:19:20;;;;;;;4.43;0.80;;;;;;;;;;5010122;28;20021;-68
2022/10/16 13:21:45;;;;;;;1.83;0.30;;;;;;;;;;5009509;28;20064;-68
2022/10/16 13:24:11;;;;;;;3.22;0.38;;;;;;;;;;5009433;28;20026;-68
2022/10/16 13:26:52;;;;;;;2.55;0.52;;;;;;;;;;5008159;28;20022;-66
2022/10/16 13:29:18;;;;;;;2.60;0.43;;;;;;;;;;5009848;28;20032;-69
2022/10/16 13:31:44;;;;;;;0.90;0.30;;;;;;;;;;5009831;28;20022;-68
2022/10/16 13:34:21;;;;;;;3.47;0.50;;;;;;;;;;5009370;28;20022;-68
2022/10/16 13:36:50;;;;;;;1.95;0.45;;;;;;;;;;5009600;28;20026;-69
2022/10/16 13:39:20;;;;;;;4.25;0.35;;;;;;;;;;5008995;28;20068;-68
2022/10/16 13:41:46;;;;;;;2.05;1.10;;;;;;;;;;5009720;28;20030;-68
2022/10/16 13:44:14;;;;;;;1.35;0.65;;;;;;;;;;5008967;28;20083;-68
2022/10/16 13:46:39;;;;;;;1.60;0.40;;;;;;;;;;5009203;28;20165;-66
2022/10/16 13:49:11;;;;;;;1.73;0.30;;;;;;;;;;5009429;28;20104;-68
2022/10/16 13:51:36;;;;;;;0.95;0.30;;;;;;;;;;5007710;28;20032;-68
2022/10/16 13:54:01;;;;;;;3.90;0.90;;;;;;;;;;5007986;28;20029;-68
2022/10/16 13:56:30;;;;;;;2.10;0.40;;;;;;;;;;5009237;28;20378;-68
2022/10/16 13:59:03;;;;;;;0.73;0.40;;;;;;;;;;5004771;28;20265;-68
2022/10/16 14:01:29;;;;;;;0.82;0.20;;;;;;;;;;5007782;28;20025;-67
2022/10/16 14:04:00;;;;;;;0.47;0.20;;;;;;;;;;5008963;28;20535;-68
2022/10/16 14:06:25;;;;;;;7.00;0.50;;;;;;;;;;5007810;28;20018;-68
2022/10/16 14:09:05;;;;;;;2.60;0.55;;;;;;;;;;5008527;28;20033;-68
2022/10/16 14:11:31;;;;;;;0.68;0.40;;;;;;;;;;5008828;28;20441;-68
2022/10/16 14:13:56;;;;;;;5.40;0.35;;;;;;;;;;5010213;28;20022;-66
2022/10/16 14:16:23;;;;;;;1.67;0.50;;;;;;;;;;5008430;28;20109;-68
2022/10/16 14:18:59;;;;;;;1.70;0.52;;;;;;;;;;5002181;28;20018;-66
2022/10/16 14:21:26;;;;;;;0.32;0.20;;;;;;;;;;4999336;28;20379;-66
2022/10/16 14:23:51;;;;;;;0.47;0.30;;;;;;;;;;5008756;28;20014;-66
2022/10/16 14:26:18;;;;;;;1.90;0.40;;;;;;;;;;5008294;28;20530;-66
2022/10/16 14:28:44;;;;;;;6.28;0.50;;;;;;;;;;5009243;28;20038;-65
2022/10/16 14:31:18;;;;;;;0.22;0.20;;;;;;;;;;5008236;28;20100;-66
2022/10/16 14:33:44;;;;;;;4.15;0.30;;;;;;;;;;5009058;28;20049;-65
2022/10/16 14:36:09;;;;;;;0.97;0.40;;;;;;;;;;5008192;28;20475;-66
2022/10/16 14:38:34;;;;;;;5.78;0.50;;;;;;;;;;5005641;28;20034;-66
2022/10/16 14:41:00;;;;;;;2.35;0.35;;;;;;;;;;4996115;28;20018;-67
2022/10/16 14:43:31;;;;;;;1.17;0.38;;;;;;;;;;5005800;28;20072;-67
2022/10/16 14:45:57;;;;;;;14.30;1.00;;;;;;;;;;5004339;28;20052;-66
2022/10/16 14:48:23;;;;;;;1.00;0.50;;;;;;;;;;5006985;28;20053;-67
2022/10/16 14:50:48;;;;;;;2.35;0.75;;;;;;;;;;5003075;28;20049;-67
2022/10/16 14:53:13;;;;;;;1.60;0.50;;;;;;;;;;5009253;28;20057;-66
2022/10/16 14:55:40;;;;;;;2.65;0.82;;;;;;;;;;5009647;28;20034;-67
2022/10/16 14:58:05;;;;;;;5.07;0.47;;;;;;;;;;5009888;28;20021;-67